createdAt,value
2023-03-03T00:03:06.120Z,102485.56
2023-03-03T00:08:07.784Z,102482.84
2023-03-03T00:13:24.321Z,102485.50
2023-03-03T00:18:34.901Z,102491.38
2023-03-03T00:23:38.759Z,102482.31
2023-03-03T00:28:47.285Z,102489.19
2023-03-03T00:33:54.960Z,102489.94
2023-03-03T00:39:11.420Z,102488.88
2023-03-03T00:44:45.417Z,102495.31
2023-03-03T00:49:47.047Z,102498.13
2023-03-03T00:54:48.863Z,102494.63
2023-03-03T00:59:50.705Z,102501.88
2023-03-03T01:04:56.442Z,102494.53
2023-03-03T01:09:59.247Z,102502.06
2023-03-03T01:15:02.246Z,102504.91
2023-03-03T01:20:04.616Z,102504.50
2023-03-03T01:25:06.839Z,102499.69
2023-03-03T01:30:09.431Z,102502.63
2023-03-03T01:35:11.760Z,102504.50
2023-03-03T01:40:19.467Z,102504.25
2023-03-03T01:45:28.099Z,102500.31
2023-03-03T01:50:45.365Z,102501.88
2023-03-03T01:55:50.278Z,102491.81
2023-03-03T02:00:57.810Z,102484.63
2023-03-03T02:06:06.324Z,102489.31
2023-03-03T02:11:09.023Z,102487.22
2023-03-03T02:16:10.672Z,102487.53
2023-03-03T02:21:18.035Z,102476.63
2023-03-03T02:26:41.400Z,102479.16
2023-03-03T02:31:45.093Z,102480.34
2023-03-03T02:36:46.983Z,102486.09
2023-03-03T02:42:21.752Z,102475.00
2023-03-03T02:47:29.536Z,102479.00
2023-03-03T02:52:31.311Z,102481.06
2023-03-03T02:57:32.917Z,102474.28
2023-03-03T03:02:34.741Z,102471.81
2023-03-03T03:07:37.746Z,102478.63
2023-03-03T03:12:40.265Z,102489.53
2023-03-03T03:17:44.195Z,102481.22
2023-03-03T03:22:47.078Z,102477.06
2023-03-03T03:27:48.881Z,102492.25
2023-03-03T03:32:50.776Z,102490.28
2023-03-03T03:37:52.731Z,102491.13
2023-03-03T03:42:55.112Z,102489.25
2023-03-03T03:47:58.032Z,102494.72
2023-03-03T03:52:59.709Z,102499.31
2023-03-03T03:58:02.287Z,102504.94
2023-03-03T04:03:04.170Z,102502.34
2023-03-03T04:08:06.444Z,102515.78
2023-03-03T04:13:08.765Z,102514.72
2023-03-03T04:18:11.212Z,102502.19
2023-03-03T04:23:14.858Z,102508.19
2023-03-03T04:28:17.659Z,102513.94
2023-03-03T04:33:19.957Z,102507.81
2023-03-03T04:38:22.016Z,102518.03
2023-03-03T04:43:24.900Z,102517.66
2023-03-03T04:48:27.279Z,102519.31
2023-03-03T04:53:29.473Z,102522.22
2023-03-03T04:58:31.357Z,102524.28
2023-03-03T05:03:33.257Z,102528.38
2023-03-03T05:08:35.292Z,102523.50
2023-03-03T05:13:36.855Z,102522.31
2023-03-03T05:18:38.611Z,102523.00
2023-03-03T05:23:40.654Z,102522.91
2023-03-03T05:28:42.255Z,102510.06
2023-03-03T05:33:43.951Z,102514.34
2023-03-03T05:38:45.554Z,102516.97
2023-03-03T05:43:47.297Z,102516.97
2023-03-03T05:48:48.932Z,102515.59
2023-03-03T05:53:50.575Z,102520.97
2023-03-03T05:58:52.280Z,102512.88
2023-03-03T06:03:53.926Z,102520.88
2023-03-03T06:08:57.273Z,102520.75
2023-03-03T06:13:59.133Z,102531.28
2023-03-03T06:19:01.404Z,102536.72
2023-03-03T06:24:03.112Z,102538.88
2023-03-03T06:29:04.766Z,102540.63
2023-03-03T06:34:06.381Z,102531.50
2023-03-03T06:39:08.054Z,102534.59
2023-03-03T06:44:11.909Z,102534.22
2023-03-03T06:49:13.530Z,102541.41
2023-03-03T06:54:16.649Z,102556.56
2023-03-03T06:59:20.813Z,102553.66
2023-03-03T07:04:31.065Z,102552.78
2023-03-03T07:09:32.769Z,102560.78
2023-03-03T07:14:39.558Z,102563.09
2023-03-03T07:19:42.430Z,102570.31
2023-03-03T07:24:52.832Z,102573.00
2023-03-03T07:30:16.348Z,102582.94
2023-03-03T07:35:40.276Z,102587.31
2023-03-03T07:40:49.568Z,102586.06
2023-03-03T07:45:51.649Z,102586.06
2023-03-03T07:50:53.351Z,102593.94
2023-03-03T07:55:55.204Z,102596.06
2023-03-03T08:01:18.550Z,102607.84
2023-03-03T08:06:44.493Z,102612.56
2023-03-03T08:11:57.790Z,102610.00
2023-03-03T08:17:01.665Z,102609.63
2023-03-03T08:22:16.509Z,102615.09
2023-03-03T08:27:18.084Z,102620.97
2023-03-03T08:32:19.855Z,102624.69
2023-03-03T08:37:21.529Z,102626.19
2023-03-03T08:42:23.096Z,102624.97
2023-03-03T08:47:26.000Z,102625.28
2023-03-03T08:52:48.244Z,102635.06
2023-03-03T08:57:50.022Z,102637.50
2023-03-03T09:02:51.761Z,102634.38
2023-03-03T09:07:54.461Z,102639.75
2023-03-03T09:12:58.989Z,102639.03
2023-03-03T09:18:14.051Z,102634.13
2023-03-03T09:23:38.180Z,102646.09
2023-03-03T09:28:39.858Z,102644.63
2023-03-03T09:33:45.026Z,102636.78
2023-03-03T09:38:47.864Z,102644.13
2023-03-03T09:44:08.238Z,102631.78
2023-03-03T09:49:27.783Z,102638.78
2023-03-03T09:54:54.154Z,102640.00
2023-03-03T10:00:10.871Z,102642.03
2023-03-03T10:05:25.362Z,102636.28
2023-03-03T10:10:51.387Z,102646.88
2023-03-03T10:15:59.172Z,102652.72
2023-03-03T10:21:41.070Z,102653.63
2023-03-03T10:27:12.072Z,102658.38
2023-03-03T10:32:45.931Z,102647.03
2023-03-03T10:38:25.127Z,102647.69
2023-03-03T10:44:00.950Z,102650.53
2023-03-03T10:49:27.545Z,102647.72
2023-03-03T10:54:57.591Z,102647.25
2023-03-03T11:00:15.847Z,102637.50
2023-03-03T11:05:43.695Z,102640.09
2023-03-03T11:10:50.047Z,102640.84
2023-03-03T11:16:23.033Z,102631.72
2023-03-03T11:21:37.715Z,102634.84
2023-03-03T11:26:48.072Z,102652.56
2023-03-03T11:31:57.569Z,102645.13
2023-03-03T11:37:08.559Z,102649.81
2023-03-03T11:42:32.293Z,102642.03
2023-03-03T11:47:42.571Z,102641.88
2023-03-03T11:52:53.307Z,102642.38
2023-03-03T11:58:13.343Z,102634.63
2023-03-03T12:03:30.350Z,102625.75
2023-03-03T12:08:42.766Z,102620.03
2023-03-03T12:14:22.378Z,102620.75
2023-03-03T12:19:54.408Z,102614.09
2023-03-03T12:24:55.989Z,102615.56
2023-03-03T12:30:07.303Z,102606.09
2023-03-03T12:35:27.626Z,102602.91
2023-03-03T12:40:32.377Z,102611.47
2023-03-03T12:45:49.537Z,102616.78
2023-03-03T12:51:16.434Z,102614.56
2023-03-03T12:56:33.457Z,102607.94
2023-03-03T13:01:52.589Z,102610.91
2023-03-03T13:07:10.182Z,102600.16
2023-03-03T13:12:51.731Z,102604.31
2023-03-03T13:18:05.173Z,102603.69
2023-03-03T13:23:38.397Z,102604.91
2023-03-03T13:28:50.036Z,102606.91
2023-03-03T13:33:56.661Z,102595.38
2023-03-03T13:39:06.409Z,102602.16
2023-03-03T13:44:25.804Z,102600.94
2023-03-03T13:50:05.802Z,102598.06
2023-03-03T13:55:21.684Z,102596.94
2023-03-03T14:00:44.918Z,102607.19
2023-03-03T14:05:49.859Z,102595.16
2023-03-03T14:11:22.438Z,102588.00
2023-03-03T14:16:45.844Z,102594.94
2023-03-03T14:22:03.575Z,102598.72
2023-03-03T14:27:23.355Z,102585.44
2023-03-03T14:32:43.232Z,102584.00
2023-03-03T14:37:47.482Z,102585.25
2023-03-03T14:42:54.551Z,102586.97
2023-03-03T14:47:56.264Z,102575.38
2023-03-03T14:53:08.626Z,102578.91
2023-03-03T14:58:29.292Z,102576.50
2023-03-03T15:03:31.543Z,102567.91
2023-03-03T15:08:36.479Z,102566.91
2023-03-03T15:13:38.552Z,102568.31
2023-03-03T15:19:04.166Z,102555.13
2023-03-03T15:24:22.227Z,102553.06
2023-03-03T15:29:36.156Z,102547.56
2023-03-03T15:34:51.363Z,102543.72
2023-03-03T15:40:05.233Z,102547.34
2023-03-03T15:45:16.075Z,102547.59
2023-03-03T15:50:40.494Z,102550.47
2023-03-03T15:55:42.038Z,102546.84
2023-03-03T16:01:16.269Z,102539.47
2023-03-03T16:06:33.729Z,102549.97
2023-03-03T16:12:20.321Z,102543.09
2023-03-03T16:17:37.037Z,102538.25
2023-03-03T16:23:22.370Z,102547.34
2023-03-03T16:28:45.504Z,102544.22
2023-03-03T16:34:05.404Z,102551.31
2023-03-03T16:39:15.141Z,102555.94
2023-03-03T16:44:47.864Z,102550.59
2023-03-03T16:50:09.567Z,102545.31
2023-03-03T16:55:42.640Z,102546.72
2023-03-03T17:01:06.500Z,102555.06
2023-03-03T17:06:35.966Z,102550.81
2023-03-03T17:12:19.502Z,102557.53
2023-03-03T17:17:59.784Z,102552.09
2023-03-03T17:23:02.637Z,102556.31
2023-03-03T17:28:38.663Z,102565.44
2023-03-03T17:33:49.903Z,102564.78
2023-03-03T17:39:19.372Z,102569.50
2023-03-03T17:44:28.731Z,102573.47
2023-03-03T17:49:56.500Z,102574.69
2023-03-03T17:55:20.057Z,102579.19
2023-03-03T18:00:43.879Z,102580.59
2023-03-03T18:06:06.460Z,102587.16
2023-03-03T18:11:38.453Z,102590.41
2023-03-03T18:16:58.227Z,102594.69
2023-03-03T18:22:05.751Z,102589.81
2023-03-03T18:27:34.958Z,102594.75
2023-03-03T18:33:02.020Z,102595.00
2023-03-03T18:38:15.897Z,102592.88
2023-03-03T18:43:42.736Z,102599.38
2023-03-03T18:48:50.468Z,102590.81
2023-03-03T18:54:08.646Z,102597.50
2023-03-03T18:59:10.564Z,102596.38
2023-03-03T19:04:16.354Z,102594.38
2023-03-03T19:09:56.780Z,102595.88
2023-03-03T19:14:58.519Z,102594.75
2023-03-03T19:20:08.837Z,102604.41
2023-03-03T19:25:18.472Z,102598.13
2023-03-03T19:30:44.539Z,102607.25
2023-03-03T19:36:06.087Z,102601.84
2023-03-03T19:41:30.661Z,102600.88
2023-03-03T19:47:23.728Z,102602.47
2023-03-03T19:52:44.706Z,102609.69
2023-03-03T19:58:02.094Z,102618.28
2023-03-03T20:03:41.269Z,102611.84
2023-03-03T20:08:58.796Z,102614.06
2023-03-03T20:14:10.186Z,102621.06
2023-03-03T20:19:45.522Z,102628.13
2023-03-03T20:25:04.536Z,102619.66
2023-03-03T20:30:08.757Z,102626.34
2023-03-03T20:35:27.368Z,102634.50
2023-03-03T20:41:07.620Z,102636.63
2023-03-03T20:46:35.101Z,102632.59
2023-03-03T20:51:45.579Z,102638.34
2023-03-03T20:57:22.309Z,102651.50
2023-03-03T21:02:34.932Z,102636.47
2023-03-03T21:07:37.026Z,102642.44
2023-03-03T21:12:38.775Z,102648.66
2023-03-03T21:17:41.890Z,102644.53
2023-03-03T21:22:43.781Z,102655.72
2023-03-03T21:27:45.503Z,102646.97
2023-03-03T21:32:49.224Z,102639.91
2023-03-03T21:37:53.921Z,102646.28
2023-03-03T21:42:58.965Z,102650.81
2023-03-03T21:48:03.605Z,102650.47
2023-03-03T21:53:05.292Z,102650.13
2023-03-03T21:58:06.983Z,102647.38
2023-03-03T22:03:08.817Z,102645.16
2023-03-03T22:08:10.483Z,102652.34
2023-03-03T22:13:12.250Z,102654.31
2023-03-03T22:18:15.072Z,102654.91
2023-03-03T22:23:18.805Z,102646.00
2023-03-03T22:28:20.544Z,102641.09
2023-03-03T22:33:22.233Z,102648.78
2023-03-03T22:38:25.141Z,102643.34
2023-03-03T22:43:29.676Z,102634.19
2023-03-03T22:48:31.900Z,102645.66
2023-03-03T22:53:33.798Z,102650.59
2023-03-03T22:58:36.960Z,102637.31
2023-03-03T23:03:39.741Z,102636.56
2023-03-03T23:08:41.361Z,102646.59
2023-03-03T23:13:42.992Z,102644.34
2023-03-03T23:18:44.589Z,102642.50
2023-03-03T23:23:46.164Z,102644.41
2023-03-03T23:28:47.726Z,102634.09
2023-03-03T23:33:50.915Z,102627.38
2023-03-03T23:38:52.611Z,102628.72
2023-03-03T23:43:54.257Z,102631.63
2023-03-03T23:48:55.865Z,102632.50
2023-03-03T23:53:57.567Z,102637.47
2023-03-03T23:59:00.533Z,102636.09
